sensor_id;sensor_type;location;lat;lon;timestamp;P1;durP1;ratioP1;P2;durP2;ratioP2
63203;SDS011;49297;43.210;27.914;2022-11-20T00:01:19;18.60;;;6.82;;
63203;SDS011;49297;43.210;27.914;2022-11-20T00:03:47;11.35;;;6.55;;
63203;SDS011;49297;43.210;27.914;2022-11-20T00:06:15;16.13;;;7.63;;
63203;SDS011;49297;43.210;27.914;2022-11-20T00:08:42;12.13;;;7.63;;
63203;SDS011;49297;43.210;27.914;2022-11-20T00:11:10;9.70;;;7.18;;
63203;SDS011;49297;43.210;27.914;2022-11-20T00:13:37;10.57;;;7.15;;
63203;SDS011;49297;43.210;27.914;2022-11-20T00:16:04;18.38;;;7.78;;
63203;SDS011;49297;43.210;27.914;2022-11-20T00:18:32;14.85;;;7.22;;
63203;SDS011;49297;43.210;27.914;2022-11-20T00:21:06;14.07;;;7.55;;
63203;SDS011;49297;43.210;27.914;2022-11-20T00:23:34;17.23;;;7.13;;
63203;SDS011;49297;43.210;27.914;2022-11-20T00:28:27;7.88;;;6.22;;
63203;SDS011;49297;43.210;27.914;2022-11-20T00:30:56;15.98;;;7.80;;
63203;SDS011;49297;43.210;27.914;2022-11-20T00:35:53;14.38;;;6.30;;
63203;SDS011;49297;43.210;27.914;2022-11-20T00:38:19;18.98;;;7.72;;
63203;SDS011;49297;43.210;27.914;2022-11-20T00:40:44;10.95;;;7.97;;
63203;SDS011;49297;43.210;27.914;2022-11-20T00:43:10;12.77;;;7.82;;
63203;SDS011;49297;43.210;27.914;2022-11-20T00:48:02;16.88;;;8.15;;
63203;SDS011;49297;43.210;27.914;2022-11-20T00:52:53;21.42;;;7.40;;
63203;SDS011;49297;43.210;27.914;2022-11-20T00:55:19;13.68;;;6.25;;
63203;SDS011;49297;43.210;27.914;2022-11-20T00:57:45;17.60;;;8.80;;
63203;SDS011;49297;43.210;27.914;2022-11-20T01:00:11;9.60;;;7.05;;
63203;SDS011;49297;43.210;27.914;2022-11-20T01:02:37;10.85;;;6.43;;
63203;SDS011;49297;43.210;27.914;2022-11-20T01:05:03;16.65;;;7.53;;
63203;SDS011;49297;43.210;27.914;2022-11-20T01:07:29;16.98;;;8.40;;
63203;SDS011;49297;43.210;27.914;2022-11-20T01:09:54;12.18;;;7.78;;
63203;SDS011;49297;43.210;27.914;2022-11-20T01:12:20;12.18;;;7.60;;
63203;SDS011;49297;43.210;27.914;2022-11-20T01:14:46;9.32;;;6.25;;
63203;SDS011;49297;43.210;27.914;2022-11-20T01:17:13;7.85;;;6.97;;
63203;SDS011;49297;43.210;27.914;2022-11-20T01:19:39;10.65;;;6.30;;
63203;SDS011;49297;43.210;27.914;2022-11-20T01:22:04;18.17;;;6.60;;
63203;SDS011;49297;43.210;27.914;2022-11-20T01:24:30;8.85;;;5.45;;
63203;SDS011;49297;43.210;27.914;2022-11-20T01:26:56;13.07;;;6.72;;
63203;SDS011;49297;43.210;27.914;2022-11-20T01:29:22;15.70;;;6.63;;
63203;SDS011;49297;43.210;27.914;2022-11-20T01:31:50;13.73;;;6.78;;
63203;SDS011;49297;43.210;27.914;2022-11-20T01:34:18;18.67;;;6.20;;
63203;SDS011;49297;43.210;27.914;2022-11-20T01:36:45;10.90;;;5.93;;
63203;SDS011;49297;43.210;27.914;2022-11-20T01:39:12;16.38;;;6.72;;
63203;SDS011;49297;43.210;27.914;2022-11-20T01:41:41;12.50;;;6.25;;
63203;SDS011;49297;43.210;27.914;2022-11-20T01:47:24;7.60;;;5.70;;
63203;SDS011;49297;43.210;27.914;2022-11-20T01:52:49;7.45;;;5.63;;
63203;SDS011;49297;43.210;27.914;2022-11-20T01:55:20;12.65;;;7.03;;
63203;SDS011;49297;43.210;27.914;2022-11-20T01:57:50;11.70;;;7.45;;
63203;SDS011;49297;43.210;27.914;2022-11-20T02:00:17;11.93;;;6.43;;
63203;SDS011;49297;43.210;27.914;2022-11-20T02:02:50;19.42;;;7.22;;
63203;SDS011;49297;43.210;27.914;2022-11-20T02:05:28;10.70;;;6.47;;
63203;SDS011;49297;43.210;27.914;2022-11-20T02:08:01;14.48;;;6.10;;
63203;SDS011;49297;43.210;27.914;2022-11-20T02:10:28;11.80;;;6.75;;
63203;SDS011;49297;43.210;27.914;2022-11-20T02:12:55;10.07;;;6.05;;
63203;SDS011;49297;43.210;27.914;2022-11-20T02:15:40;12.23;;;5.68;;
63203;SDS011;49297;43.210;27.914;2022-11-20T02:18:06;7.57;;;5.07;;
63203;SDS011;49297;43.210;27.914;2022-11-20T02:20:33;10.93;;;5.45;;
63203;SDS011;49297;43.210;27.914;2022-11-20T02:23:01;8.57;;;5.47;;
63203;SDS011;49297;43.210;27.914;2022-11-20T02:25:33;11.18;;;7.20;;
63203;SDS011;49297;43.210;27.914;2022-11-20T02:28:02;14.07;;;7.15;;
63203;SDS011;49297;43.210;27.914;2022-11-20T02:30:29;10.63;;;5.70;;
63203;SDS011;49297;43.210;27.914;2022-11-20T02:32:54;11.70;;;6.90;;
63203;SDS011;49297;43.210;27.914;2022-11-20T02:37:47;9.25;;;6.82;;
63203;SDS011;49297;43.210;27.914;2022-11-20T02:40:15;12.93;;;6.22;;
63203;SDS011;49297;43.210;27.914;2022-11-20T02:42:41;12.48;;;6.72;;
63203;SDS011;49297;43.210;27.914;2022-11-20T02:45:07;15.15;;;6.53;;
63203;SDS011;49297;43.210;27.914;2022-11-20T02:47:33;10.05;;;5.43;;
63203;SDS011;49297;43.210;27.914;2022-11-20T02:49:59;14.65;;;5.60;;
63203;SDS011;49297;43.210;27.914;2022-11-20T02:52:25;9.48;;;5.97;;
63203;SDS011;49297;43.210;27.914;2022-11-20T02:54:51;8.43;;;6.13;;
63203;SDS011;49297;43.210;27.914;2022-11-20T02:57:17;7.28;;;5.20;;
63203;SDS011;49297;43.210;27.914;2022-11-20T02:59:43;10.70;;;6.30;;
63203;SDS011;49297;43.210;27.914;2022-11-20T03:02:09;13.60;;;6.22;;
63203;SDS011;49297;43.210;27.914;2022-11-20T03:04:35;11.60;;;6.38;;
63203;SDS011;49297;43.210;27.914;2022-11-20T03:07:01;16.63;;;7.43;;
63203;SDS011;49297;43.210;27.914;2022-11-20T03:09:27;13.10;;;5.65;;
63203;SDS011;49297;43.210;27.914;2022-11-20T03:11:52;14.88;;;6.05;;
63203;SDS011;49297;43.210;27.914;2022-11-20T03:14:18;12.90;;;6.13;;
63203;SDS011;49297;43.210;27.914;2022-11-20T03:16:45;14.27;;;5.95;;
63203;SDS011;49297;43.210;27.914;2022-11-20T03:19:11;20.23;;;6.63;;
63203;SDS011;49297;43.210;27.914;2022-11-20T03:21:37;17.08;;;5.13;;
63203;SDS011;49297;43.210;27.914;2022-11-20T03:24:03;13.93;;;5.53;;
63203;SDS011;49297;43.210;27.914;2022-11-20T03:26:29;8.23;;;4.60;;
63203;SDS011;49297;43.210;27.914;2022-11-20T03:29:00;7.72;;;5.13;;
63203;SDS011;49297;43.210;27.914;2022-11-20T03:31:29;15.02;;;6.28;;
63203;SDS011;49297;43.210;27.914;2022-11-20T03:33:56;8.68;;;5.68;;
63203;SDS011;49297;43.210;27.914;2022-11-20T03:36:23;11.48;;;5.40;;
63203;SDS011;49297;43.210;27.914;2022-11-20T03:38:49;11.40;;;5.38;;
63203;SDS011;49297;43.210;27.914;2022-11-20T03:41:24;13.63;;;5.57;;
63203;SDS011;49297;43.210;27.914;2022-11-20T03:43:57;13.10;;;5.05;;
63203;SDS011;49297;43.210;27.914;2022-11-20T03:46:25;9.88;;;4.55;;
63203;SDS011;49297;43.210;27.914;2022-11-20T03:48:52;9.65;;;4.85;;
63203;SDS011;49297;43.210;27.914;2022-11-20T03:51:19;11.70;;;4.63;;
63203;SDS011;49297;43.210;27.914;2022-11-20T03:53:49;10.52;;;5.22;;
63203;SDS011;49297;43.210;27.914;2022-11-20T03:56:16;8.18;;;4.57;;
63203;SDS011;49297;43.210;27.914;2022-11-20T03:58:45;7.78;;;4.05;;
63203;SDS011;49297;43.210;27.914;2022-11-20T04:01:18;10.30;;;5.53;;
63203;SDS011;49297;43.210;27.914;2022-11-20T04:03:45;10.38;;;5.03;;
63203;SDS011;49297;43.210;27.914;2022-11-20T04:06:13;11.65;;;5.75;;
63203;SDS011;49297;43.210;27.914;2022-11-20T04:08:41;14.57;;;4.10;;
63203;SDS011;49297;43.210;27.914;2022-11-20T04:11:14;10.43;;;4.80;;
63203;SDS011;49297;43.210;27.914;2022-11-20T04:13:51;7.40;;;3.78;;
63203;SDS011;49297;43.210;27.914;2022-11-20T04:16:18;6.57;;;4.00;;
63203;SDS011;49297;43.210;27.914;2022-11-20T04:18:45;10.45;;;3.72;;
63203;SDS011;49297;43.210;27.914;2022-11-20T04:21:11;7.30;;;4.57;;
63203;SDS011;49297;43.210;27.914;2022-11-20T04:23:38;8.52;;;4.85;;
63203;SDS011;49297;43.210;27.914;2022-11-20T04:26:06;7.47;;;3.90;;
63203;SDS011;49297;43.210;27.914;2022-11-20T04:28:36;7.47;;;4.05;;
63203;SDS011;49297;43.210;27.914;2022-11-20T04:33:48;13.98;;;5.57;;
63203;SDS011;49297;43.210;27.914;2022-11-20T04:36:17;8.48;;;5.40;;
63203;SDS011;49297;43.210;27.914;2022-11-20T04:38:44;15.88;;;5.18;;
63203;SDS011;49297;43.210;27.914;2022-11-20T04:41:13;9.88;;;4.25;;
63203;SDS011;49297;43.210;27.914;2022-11-20T04:43:41;5.95;;;4.53;;
63203;SDS011;49297;43.210;27.914;2022-11-20T04:46:07;6.32;;;4.28;;
63203;SDS011;49297;43.210;27.914;2022-11-20T04:48:34;8.15;;;6.07;;
63203;SDS011;49297;43.210;27.914;2022-11-20T04:51:02;12.45;;;5.55;;
63203;SDS011;49297;43.210;27.914;2022-11-20T04:53:29;12.80;;;8.00;;
63203;SDS011;49297;43.210;27.914;2022-11-20T04:56:28;9.77;;;6.10;;
63203;SDS011;49297;43.210;27.914;2022-11-20T04:58:47;15.88;;;6.78;;
63203;SDS011;49297;43.210;27.914;2022-11-20T05:01:17;10.05;;;4.07;;
63203;SDS011;49297;43.210;27.914;2022-11-20T05:03:45;8.27;;;4.68;;
63203;SDS011;49297;43.210;27.914;2022-11-20T05:06:12;7.40;;;4.30;;
63203;SDS011;49297;43.210;27.914;2022-11-20T05:08:39;12.38;;;5.28;;
63203;SDS011;49297;43.210;27.914;2022-11-20T05:11:12;12.63;;;4.68;;
63203;SDS011;49297;43.210;27.914;2022-11-20T05:13:41;15.63;;;5.57;;
63203;SDS011;49297;43.210;27.914;2022-11-20T05:16:08;9.18;;;5.00;;
63203;SDS011;49297;43.210;27.914;2022-11-20T05:18:36;11.50;;;4.90;;
63203;SDS011;49297;43.210;27.914;2022-11-20T05:21:03;12.73;;;6.80;;
63203;SDS011;49297;43.210;27.914;2022-11-20T05:23:30;11.23;;;4.97;;
63203;SDS011;49297;43.210;27.914;2022-11-20T05:25:57;9.85;;;5.40;;
63203;SDS011;49297;43.210;27.914;2022-11-20T05:28:23;12.50;;;4.45;;
63203;SDS011;49297;43.210;27.914;2022-11-20T05:30:50;9.27;;;4.88;;
63203;SDS011;49297;43.210;27.914;2022-11-20T05:33:17;11.70;;;4.95;;
63203;SDS011;49297;43.210;27.914;2022-11-20T05:35:43;9.07;;;5.00;;
63203;SDS011;49297;43.210;27.914;2022-11-20T05:38:09;7.75;;;4.05;;
63203;SDS011;49297;43.210;27.914;2022-11-20T05:40:35;9.02;;;4.20;;
63203;SDS011;49297;43.210;27.914;2022-11-20T05:43:01;8.20;;;3.85;;
63203;SDS011;49297;43.210;27.914;2022-11-20T05:45:27;10.63;;;4.95;;
63203;SDS011;49297;43.210;27.914;2022-11-20T05:47:53;12.48;;;5.13;;
63203;SDS011;49297;43.210;27.914;2022-11-20T05:50:22;9.38;;;4.30;;
63203;SDS011;49297;43.210;27.914;2022-11-20T05:52:48;10.00;;;4.38;;
63203;SDS011;49297;43.210;27.914;2022-11-20T05:55:14;11.40;;;3.97;;
63203;SDS011;49297;43.210;27.914;2022-11-20T05:57:40;10.90;;;5.18;;
63203;SDS011;49297;43.210;27.914;2022-11-20T06:00:06;13.93;;;4.32;;
63203;SDS011;49297;43.210;27.914;2022-11-20T06:02:34;7.82;;;4.82;;
63203;SDS011;49297;43.210;27.914;2022-11-20T06:05:00;16.33;;;5.72;;
63203;SDS011;49297;43.210;27.914;2022-11-20T06:07:26;12.77;;;4.20;;
63203;SDS011;49297;43.210;27.914;2022-11-20T06:09:52;8.90;;;4.20;;
63203;SDS011;49297;43.210;27.914;2022-11-20T06:12:18;6.07;;;3.45;;
63203;SDS011;49297;43.210;27.914;2022-11-20T06:14:44;11.02;;;5.13;;
63203;SDS011;49297;43.210;27.914;2022-11-20T06:17:10;15.65;;;4.57;;
63203;SDS011;49297;43.210;27.914;2022-11-20T06:19:35;9.95;;;5.43;;
63203;SDS011;49297;43.210;27.914;2022-11-20T06:22:01;15.25;;;5.82;;
63203;SDS011;49297;43.210;27.914;2022-11-20T06:24:27;8.18;;;5.18;;
63203;SDS011;49297;43.210;27.914;2022-11-20T06:26:53;23.95;;;4.47;;
63203;SDS011;49297;43.210;27.914;2022-11-20T06:29:19;10.77;;;4.38;;
63203;SDS011;49297;43.210;27.914;2022-11-20T06:31:45;9.60;;;5.53;;
63203;SDS011;49297;43.210;27.914;2022-11-20T06:34:11;9.25;;;4.88;;
63203;SDS011;49297;43.210;27.914;2022-11-20T06:36:37;13.57;;;4.60;;
63203;SDS011;49297;43.210;27.914;2022-11-20T06:39:03;12.88;;;5.18;;
63203;SDS011;49297;43.210;27.914;2022-11-20T06:41:29;9.65;;;4.10;;
63203;SDS011;49297;43.210;27.914;2022-11-20T06:43:55;6.88;;;5.20;;
63203;SDS011;49297;43.210;27.914;2022-11-20T06:46:21;7.93;;;4.03;;
63203;SDS011;49297;43.210;27.914;2022-11-20T06:48:48;9.98;;;5.35;;
63203;SDS011;49297;43.210;27.914;2022-11-20T06:51:14;10.80;;;5.35;;
63203;SDS011;49297;43.210;27.914;2022-11-20T06:53:40;13.70;;;4.95;;
63203;SDS011;49297;43.210;27.914;2022-11-20T06:56:06;15.25;;;5.45;;
63203;SDS011;49297;43.210;27.914;2022-11-20T06:58:33;11.25;;;3.88;;
63203;SDS011;49297;43.210;27.914;2022-11-20T07:01:01;10.68;;;5.68;;
63203;SDS011;49297;43.210;27.914;2022-11-20T07:03:34;6.82;;;4.22;;
63203;SDS011;49297;43.210;27.914;2022-11-20T07:06:00;14.02;;;4.50;;
63203;SDS011;49297;43.210;27.914;2022-11-20T07:08:27;16.42;;;5.20;;
63203;SDS011;49297;43.210;27.914;2022-11-20T07:10:58;13.35;;;4.50;;
63203;SDS011;49297;43.210;27.914;2022-11-20T07:13:45;9.30;;;4.60;;
63203;SDS011;49297;43.210;27.914;2022-11-20T07:16:11;15.48;;;4.75;;
63203;SDS011;49297;43.210;27.914;2022-11-20T07:18:36;7.18;;;3.97;;
63203;SDS011;49297;43.210;27.914;2022-11-20T07:21:03;7.25;;;4.35;;
63203;SDS011;49297;43.210;27.914;2022-11-20T07:23:30;10.27;;;4.32;;
63203;SDS011;49297;43.210;27.914;2022-11-20T07:25:56;8.52;;;5.15;;
63203;SDS011;49297;43.210;27.914;2022-11-20T07:28:22;9.10;;;4.10;;
63203;SDS011;49297;43.210;27.914;2022-11-20T07:30:51;14.90;;;5.15;;
63203;SDS011;49297;43.210;27.914;2022-11-20T07:33:19;10.40;;;5.22;;
63203;SDS011;49297;43.210;27.914;2022-11-20T07:35:45;22.35;;;5.45;;
63203;SDS011;49297;43.210;27.914;2022-11-20T07:38:11;9.07;;;4.03;;
63203;SDS011;49297;43.210;27.914;2022-11-20T07:40:37;17.52;;;5.15;;
63203;SDS011;49297;43.210;27.914;2022-11-20T07:43:03;7.75;;;3.75;;
63203;SDS011;49297;43.210;27.914;2022-11-20T07:45:29;14.95;;;5.32;;
63203;SDS011;49297;43.210;27.914;2022-11-20T07:47:54;16.25;;;5.20;;
63203;SDS011;49297;43.210;27.914;2022-11-20T07:50:20;13.98;;;4.95;;
63203;SDS011;49297;43.210;27.914;2022-11-20T07:52:46;9.70;;;4.82;;
63203;SDS011;49297;43.210;27.914;2022-11-20T07:55:12;15.40;;;6.47;;
63203;SDS011;49297;43.210;27.914;2022-11-20T07:57:39;10.55;;;5.10;;
63203;SDS011;49297;43.210;27.914;2022-11-20T08:00:06;7.78;;;4.22;;
63203;SDS011;49297;43.210;27.914;2022-11-20T08:02:40;10.32;;;4.72;;
63203;SDS011;49297;43.210;27.914;2022-11-20T08:05:07;9.70;;;4.47;;
63203;SDS011;49297;43.210;27.914;2022-11-20T08:07:36;10.18;;;4.70;;
63203;SDS011;49297;43.210;27.914;2022-11-20T08:10:06;14.95;;;4.97;;
63203;SDS011;49297;43.210;27.914;2022-11-20T08:12:33;8.65;;;5.30;;
63203;SDS011;49297;43.210;27.914;2022-11-20T08:15:18;11.32;;;4.85;;
63203;SDS011;49297;43.210;27.914;2022-11-20T08:17:44;7.00;;;4.93;;
63203;SDS011;49297;43.210;27.914;2022-11-20T08:20:10;30.90;;;4.88;;
63203;SDS011;49297;43.210;27.914;2022-11-20T08:22:37;14.52;;;5.32;;
63203;SDS011;49297;43.210;27.914;2022-11-20T08:25:03;8.93;;;5.25;;
63203;SDS011;49297;43.210;27.914;2022-11-20T08:27:29;9.35;;;4.70;;
63203;SDS011;49297;43.210;27.914;2022-11-20T08:29:57;11.20;;;5.35;;
63203;SDS011;49297;43.210;27.914;2022-11-20T08:32:22;11.50;;;5.10;;
63203;SDS011;49297;43.210;27.914;2022-11-20T08:34:48;13.25;;;5.63;;
63203;SDS011;49297;43.210;27.914;2022-11-20T08:37:14;24.92;;;5.57;;
63203;SDS011;49297;43.210;27.914;2022-11-20T08:39:40;10.60;;;5.07;;
63203;SDS011;49297;43.210;27.914;2022-11-20T08:42:06;8.82;;;4.32;;
63203;SDS011;49297;43.210;27.914;2022-11-20T08:44:34;6.80;;;4.40;;
63203;SDS011;49297;43.210;27.914;2022-11-20T08:47:00;8.48;;;3.95;;
63203;SDS011;49297;43.210;27.914;2022-11-20T08:49:26;13.98;;;5.03;;
63203;SDS011;49297;43.210;27.914;2022-11-20T08:51:51;9.52;;;4.88;;
63203;SDS011;49297;43.210;27.914;2022-11-20T08:54:20;14.13;;;5.18;;
63203;SDS011;49297;43.210;27.914;2022-11-20T08:56:47;13.10;;;4.40;;
63203;SDS011;49297;43.210;27.914;2022-11-20T08:59:13;12.70;;;4.85;;
63203;SDS011;49297;43.210;27.914;2022-11-20T09:01:39;10.00;;;4.35;;
63203;SDS011;49297;43.210;27.914;2022-11-20T09:04:05;28.88;;;5.75;;
63203;SDS011;49297;43.210;27.914;2022-11-20T09:06:31;8.32;;;4.65;;
63203;SDS011;49297;43.210;27.914;2022-11-20T09:08:57;30.40;;;6.03;;
63203;SDS011;49297;43.210;27.914;2022-11-20T09:11:22;10.23;;;4.43;;
63203;SDS011;49297;43.210;27.914;2022-11-20T09:13:48;15.05;;;4.32;;
63203;SDS011;49297;43.210;27.914;2022-11-20T09:16:14;16.30;;;5.78;;
63203;SDS011;49297;43.210;27.914;2022-11-20T09:18:41;14.02;;;5.25;;
63203;SDS011;49297;43.210;27.914;2022-11-20T09:21:11;14.15;;;5.65;;
63203;SDS011;49297;43.210;27.914;2022-11-20T09:23:39;15.43;;;6.43;;
63203;SDS011;49297;43.210;27.914;2022-11-20T09:26:06;13.05;;;5.90;;
63203;SDS011;49297;43.210;27.914;2022-11-20T09:28:39;13.55;;;6.13;;
63203;SDS011;49297;43.210;27.914;2022-11-20T09:31:06;16.80;;;6.45;;
63203;SDS011;49297;43.210;27.914;2022-11-20T09:33:33;12.43;;;4.72;;
63203;SDS011;49297;43.210;27.914;2022-11-20T09:35:59;12.88;;;5.50;;
63203;SDS011;49297;43.210;27.914;2022-11-20T09:38:25;9.85;;;4.53;;
63203;SDS011;49297;43.210;27.914;2022-11-20T09:40:56;23.77;;;4.60;;
63203;SDS011;49297;43.210;27.914;2022-11-20T09:43:32;8.52;;;4.57;;
63203;SDS011;49297;43.210;27.914;2022-11-20T09:51:52;9.75;;;4.18;;
63203;SDS011;49297;43.210;27.914;2022-11-20T09:54:34;9.75;;;5.03;;
63203;SDS011;49297;43.210;27.914;2022-11-20T09:57:05;12.10;;;4.18;;
63203;SDS011;49297;43.210;27.914;2022-11-20T10:02:19;7.47;;;4.53;;
63203;SDS011;49297;43.210;27.914;2022-11-20T10:04:52;9.98;;;3.60;;
63203;SDS011;49297;43.210;27.914;2022-11-20T10:07:37;13.17;;;4.53;;
63203;SDS011;49297;43.210;27.914;2022-11-20T10:10:14;15.55;;;5.28;;
63203;SDS011;49297;43.210;27.914;2022-11-20T10:15:41;11.45;;;4.47;;
63203;SDS011;49297;43.210;27.914;2022-11-20T10:27:08;10.18;;;4.28;;
63203;SDS011;49297;43.210;27.914;2022-11-20T10:29:36;12.75;;;5.20;;
63203;SDS011;49297;43.210;27.914;2022-11-20T10:32:11;10.57;;;4.72;;
63203;SDS011;49297;43.210;27.914;2022-11-20T10:34:51;15.52;;;5.97;;
63203;SDS011;49297;43.210;27.914;2022-11-20T10:37:26;14.70;;;5.63;;
63203;SDS011;49297;43.210;27.914;2022-11-20T10:42:30;11.35;;;4.80;;
63203;SDS011;49297;43.210;27.914;2022-11-20T10:47:45;7.93;;;5.63;;
63203;SDS011;49297;43.210;27.914;2022-11-20T10:50:11;10.43;;;5.25;;
63203;SDS011;49297;43.210;27.914;2022-11-20T10:58:36;11.82;;;5.25;;
63203;SDS011;49297;43.210;27.914;2022-11-20T11:01:14;16.70;;;4.47;;
63203;SDS011;49297;43.210;27.914;2022-11-20T11:03:43;17.92;;;6.45;;
63203;SDS011;49297;43.210;27.914;2022-11-20T11:06:12;18.55;;;5.22;;
63203;SDS011;49297;43.210;27.914;2022-11-20T11:08:58;10.20;;;4.68;;
63203;SDS011;49297;43.210;27.914;2022-11-20T11:11:30;9.15;;;4.65;;
63203;SDS011;49297;43.210;27.914;2022-11-20T11:16:54;13.18;;;5.50;;
63203;SDS011;49297;43.210;27.914;2022-11-20T11:19:22;13.05;;;5.35;;
63203;SDS011;49297;43.210;27.914;2022-11-20T11:21:49;16.20;;;6.05;;
63203;SDS011;49297;43.210;27.914;2022-11-20T11:24:22;20.85;;;5.47;;
63203;SDS011;49297;43.210;27.914;2022-11-20T11:26:53;18.52;;;5.32;;
63203;SDS011;49297;43.210;27.914;2022-11-20T11:29:24;17.45;;;4.75;;
63203;SDS011;49297;43.210;27.914;2022-11-20T11:32:08;9.70;;;4.72;;
63203;SDS011;49297;43.210;27.914;2022-11-20T11:34:39;11.75;;;5.47;;
63203;SDS011;49297;43.210;27.914;2022-11-20T11:37:10;10.13;;;5.05;;
63203;SDS011;49297;43.210;27.914;2022-11-20T11:39:42;9.18;;;5.13;;
63203;SDS011;49297;43.210;27.914;2022-11-20T11:42:13;21.55;;;6.25;;
63203;SDS011;49297;43.210;27.914;2022-11-20T11:44:44;16.00;;;6.47;;
63203;SDS011;49297;43.210;27.914;2022-11-20T11:47:37;12.77;;;5.85;;
63203;SDS011;49297;43.210;27.914;2022-11-20T11:52:43;15.77;;;9.90;;
63203;SDS011;49297;43.210;27.914;2022-11-20T11:58:39;18.80;;;12.05;;
63203;SDS011;49297;43.210;27.914;2022-11-20T12:01:20;23.63;;;13.48;;
63203;SDS011;49297;43.210;27.914;2022-11-20T12:04:04;15.57;;;9.07;;
63203;SDS011;49297;43.210;27.914;2022-11-20T12:06:39;22.17;;;10.13;;
63203;SDS011;49297;43.210;27.914;2022-11-20T12:09:10;22.25;;;8.32;;
63203;SDS011;49297;43.210;27.914;2022-11-20T12:11:38;13.02;;;5.88;;
63203;SDS011;49297;43.210;27.914;2022-11-20T12:14:34;15.48;;;5.50;;
63203;SDS011;49297;43.210;27.914;2022-11-20T12:17:07;15.70;;;7.05;;
63203;SDS011;49297;43.210;27.914;2022-11-20T12:19:36;15.40;;;5.13;;
63203;SDS011;49297;43.210;27.914;2022-11-20T12:22:05;17.40;;;5.90;;
63203;SDS011;49297;43.210;27.914;2022-11-20T12:30:25;8.57;;;4.45;;
63203;SDS011;49297;43.210;27.914;2022-11-20T12:33:04;16.50;;;6.65;;
63203;SDS011;49297;43.210;27.914;2022-11-20T12:38:47;14.25;;;5.50;;
63203;SDS011;49297;43.210;27.914;2022-11-20T12:44:38;18.25;;;7.25;;
63203;SDS011;49297;43.210;27.914;2022-11-20T12:47:43;17.10;;;5.63;;
63203;SDS011;49297;43.210;27.914;2022-11-20T13:07:10;20.95;;;8.10;;
63203;SDS011;49297;43.210;27.914;2022-11-20T13:09:40;24.23;;;7.47;;
63203;SDS011;49297;43.210;27.914;2022-11-20T13:12:16;16.30;;;7.30;;
63203;SDS011;49297;43.210;27.914;2022-11-20T13:17:21;15.85;;;6.80;;
63203;SDS011;49297;43.210;27.914;2022-11-20T13:20:17;24.27;;;7.80;;
63203;SDS011;49297;43.210;27.914;2022-11-20T13:25:34;14.65;;;7.47;;
63203;SDS011;49297;43.210;27.914;2022-11-20T13:30:36;17.92;;;7.03;;
63203;SDS011;49297;43.210;27.914;2022-11-20T13:36:03;18.25;;;6.75;;
63203;SDS011;49297;43.210;27.914;2022-11-20T13:38:44;20.20;;;7.70;;
63203;SDS011;49297;43.210;27.914;2022-11-20T13:41:23;18.90;;;7.82;;
63203;SDS011;49297;43.210;27.914;2022-11-20T13:46:41;30.15;;;6.13;;
63203;SDS011;49297;43.210;27.914;2022-11-20T13:49:55;18.58;;;6.75;;
63203;SDS011;49297;43.210;27.914;2022-11-20T13:54:48;19.85;;;7.25;;
63203;SDS011;49297;43.210;27.914;2022-11-20T13:57:31;23.38;;;7.93;;
63203;SDS011;49297;43.210;27.914;2022-11-20T14:02:43;38.15;;;8.80;;
63203;SDS011;49297;43.210;27.914;2022-11-20T14:05:22;21.17;;;8.07;;
63203;SDS011;49297;43.210;27.914;2022-11-20T14:07:49;16.55;;;7.95;;
63203;SDS011;49297;43.210;27.914;2022-11-20T14:10:49;29.77;;;7.28;;
63203;SDS011;49297;43.210;27.914;2022-11-20T14:13:18;16.63;;;7.57;;
63203;SDS011;49297;43.210;27.914;2022-11-20T14:15:46;15.70;;;6.35;;
63203;SDS011;49297;43.210;27.914;2022-11-20T14:18:13;19.98;;;8.73;;
63203;SDS011;49297;43.210;27.914;2022-11-20T14:20:47;22.58;;;7.85;;
63203;SDS011;49297;43.210;27.914;2022-11-20T14:23:22;23.20;;;8.70;;
63203;SDS011;49297;43.210;27.914;2022-11-20T14:25:49;32.25;;;6.90;;
63203;SDS011;49297;43.210;27.914;2022-11-20T14:28:25;22.50;;;7.53;;
63203;SDS011;49297;43.210;27.914;2022-11-20T14:30:52;27.73;;;7.82;;
63203;SDS011;49297;43.210;27.914;2022-11-20T14:33:20;16.60;;;7.07;;
63203;SDS011;49297;43.210;27.914;2022-11-20T14:35:51;20.75;;;7.97;;
63203;SDS011;49297;43.210;27.914;2022-11-20T14:38:21;24.25;;;8.30;;
63203;SDS011;49297;43.210;27.914;2022-11-20T14:40:50;19.27;;;7.18;;
63203;SDS011;49297;43.210;27.914;2022-11-20T14:45:54;14.52;;;6.03;;
63203;SDS011;49297;43.210;27.914;2022-11-20T14:48:28;20.73;;;8.10;;
63203;SDS011;49297;43.210;27.914;2022-11-20T14:50:57;23.60;;;7.90;;
63203;SDS011;49297;43.210;27.914;2022-11-20T14:53:23;20.50;;;8.55;;
63203;SDS011;49297;43.210;27.914;2022-11-20T14:56:00;24.10;;;7.38;;
63203;SDS011;49297;43.210;27.914;2022-11-20T14:58:31;34.50;;;7.90;;
63203;SDS011;49297;43.210;27.914;2022-11-20T15:06:02;32.28;;;8.52;;
63203;SDS011;49297;43.210;27.914;2022-11-20T15:08:29;28.70;;;9.27;;
63203;SDS011;49297;43.210;27.914;2022-11-20T15:10:56;26.80;;;9.70;;
63203;SDS011;49297;43.210;27.914;2022-11-20T15:13:30;32.17;;;9.00;;
63203;SDS011;49297;43.210;27.914;2022-11-20T15:16:01;20.27;;;7.97;;
63203;SDS011;49297;43.210;27.914;2022-11-20T15:18:32;27.75;;;7.90;;
63203;SDS011;49297;43.210;27.914;2022-11-20T15:21:03;25.40;;;7.93;;
63203;SDS011;49297;43.210;27.914;2022-11-20T15:23:35;28.85;;;9.88;;
63203;SDS011;49297;43.210;27.914;2022-11-20T15:26:01;28.80;;;9.88;;
63203;SDS011;49297;43.210;27.914;2022-11-20T15:28:30;22.63;;;9.88;;
63203;SDS011;49297;43.210;27.914;2022-11-20T15:30:59;23.38;;;9.98;;
63203;SDS011;49297;43.210;27.914;2022-11-20T15:33:25;26.67;;;9.18;;
63203;SDS011;49297;43.210;27.914;2022-11-20T15:35:51;21.75;;;8.85;;
63203;SDS011;49297;43.210;27.914;2022-11-20T15:38:17;19.50;;;8.48;;
63203;SDS011;49297;43.210;27.914;2022-11-20T15:43:08;24.55;;;8.63;;
63203;SDS011;49297;43.210;27.914;2022-11-20T15:45:36;21.00;;;10.55;;
63203;SDS011;49297;43.210;27.914;2022-11-20T15:48:08;24.58;;;9.23;;
63203;SDS011;49297;43.210;27.914;2022-11-20T15:50:38;18.63;;;8.65;;
63203;SDS011;49297;43.210;27.914;2022-11-20T15:53:14;36.95;;;11.73;;
63203;SDS011;49297;43.210;27.914;2022-11-20T15:55:40;41.30;;;9.35;;
63203;SDS011;49297;43.210;27.914;2022-11-20T15:58:06;24.35;;;10.48;;
63203;SDS011;49297;43.210;27.914;2022-11-20T16:00:32;23.08;;;9.35;;
63203;SDS011;49297;43.210;27.914;2022-11-20T16:02:58;28.48;;;10.20;;
63203;SDS011;49297;43.210;27.914;2022-11-20T16:05:25;22.42;;;11.35;;
63203;SDS011;49297;43.210;27.914;2022-11-20T16:07:53;35.10;;;10.00;;
63203;SDS011;49297;43.210;27.914;2022-11-20T16:10:19;32.03;;;11.85;;
63203;SDS011;49297;43.210;27.914;2022-11-20T16:12:45;21.80;;;10.00;;
63203;SDS011;49297;43.210;27.914;2022-11-20T16:18:11;20.98;;;11.70;;
63203;SDS011;49297;43.210;27.914;2022-11-20T16:20:39;35.80;;;13.48;;
63203;SDS011;49297;43.210;27.914;2022-11-20T16:23:05;26.80;;;12.75;;
63203;SDS011;49297;43.210;27.914;2022-11-20T16:25:32;35.78;;;14.05;;
63203;SDS011;49297;43.210;27.914;2022-11-20T16:27:58;27.73;;;12.75;;
63203;SDS011;49297;43.210;27.914;2022-11-20T16:30:23;27.08;;;14.57;;
63203;SDS011;49297;43.210;27.914;2022-11-20T16:32:50;26.85;;;12.90;;
63203;SDS011;49297;43.210;27.914;2022-11-20T16:35:16;37.42;;;15.95;;
63203;SDS011;49297;43.210;27.914;2022-11-20T16:37:42;29.02;;;12.38;;